sensor_id;sensor_type;location;lat;lon;timestamp;P1;durP1;ratioP1;P2;durP2;ratioP2
18793;SDS011;29610;49.022;12.114;2023-06-14T00:00:14;9.80;;;3.60;;
18793;SDS011;29610;49.022;12.114;2023-06-14T00:02:44;9.23;;;3.83;;
18793;SDS011;29610;49.022;12.114;2023-06-14T00:05:13;8.37;;;3.33;;
18793;SDS011;29610;49.022;12.114;2023-06-14T00:07:43;7.70;;;2.80;;
18793;SDS011;29610;49.022;12.114;2023-06-14T00:10:15;9.73;;;3.90;;
18793;SDS011;29610;49.022;12.114;2023-06-14T00:12:44;9.33;;;3.60;;
18793;SDS011;29610;49.022;12.114;2023-06-14T00:15:13;11.43;;;4.60;;
18793;SDS011;29610;49.022;12.114;2023-06-14T00:17:42;8.40;;;3.17;;
18793;SDS011;29610;49.022;12.114;2023-06-14T00:20:14;8.00;;;2.90;;
18793;SDS011;29610;49.022;12.114;2023-06-14T00:22:44;9.17;;;3.57;;
18793;SDS011;29610;49.022;12.114;2023-06-14T00:25:14;11.67;;;4.23;;
18793;SDS011;29610;49.022;12.114;2023-06-14T00:27:54;9.43;;;3.63;;
18793;SDS011;29610;49.022;12.114;2023-06-14T00:30:25;10.53;;;3.63;;
18793;SDS011;29610;49.022;12.114;2023-06-14T00:32:58;11.90;;;3.70;;
18793;SDS011;29610;49.022;12.114;2023-06-14T00:35:27;7.90;;;3.13;;
18793;SDS011;29610;49.022;12.114;2023-06-14T00:37:57;9.90;;;3.57;;
18793;SDS011;29610;49.022;12.114;2023-06-14T00:40:26;9.63;;;4.33;;
18793;SDS011;29610;49.022;12.114;2023-06-14T00:42:56;10.53;;;3.73;;
18793;SDS011;29610;49.022;12.114;2023-06-14T00:45:26;11.90;;;3.80;;
18793;SDS011;29610;49.022;12.114;2023-06-14T00:47:55;11.30;;;4.13;;
18793;SDS011;29610;49.022;12.114;2023-06-14T00:50:24;10.00;;;4.30;;
18793;SDS011;29610;49.022;12.114;2023-06-14T00:52:53;12.03;;;4.23;;
18793;SDS011;29610;49.022;12.114;2023-06-14T00:55:25;9.60;;;4.10;;
18793;SDS011;29610;49.022;12.114;2023-06-14T00:57:54;14.40;;;4.00;;
18793;SDS011;29610;49.022;12.114;2023-06-14T01:00:24;10.00;;;3.07;;
18793;SDS011;29610;49.022;12.114;2023-06-14T01:02:55;9.20;;;4.07;;
18793;SDS011;29610;49.022;12.114;2023-06-14T01:05:24;8.00;;;2.93;;
18793;SDS011;29610;49.022;12.114;2023-06-14T01:08:00;8.33;;;3.40;;
18793;SDS011;29610;49.022;12.114;2023-06-14T01:10:55;8.30;;;3.43;;
18793;SDS011;29610;49.022;12.114;2023-06-14T01:13:34;10.20;;;3.57;;
18793;SDS011;29610;49.022;12.114;2023-06-14T01:16:06;9.40;;;3.23;;
18793;SDS011;29610;49.022;12.114;2023-06-14T01:18:36;8.53;;;3.43;;
18793;SDS011;29610;49.022;12.114;2023-06-14T01:21:05;10.97;;;4.00;;
18793;SDS011;29610;49.022;12.114;2023-06-14T01:23:36;9.30;;;3.63;;
18793;SDS011;29610;49.022;12.114;2023-06-14T01:26:05;7.67;;;3.50;;
18793;SDS011;29610;49.022;12.114;2023-06-14T01:28:34;9.57;;;3.80;;
18793;SDS011;29610;49.022;12.114;2023-06-14T01:31:03;9.67;;;3.80;;
18793;SDS011;29610;49.022;12.114;2023-06-14T01:33:35;9.87;;;3.67;;
18793;SDS011;29610;49.022;12.114;2023-06-14T01:36:05;9.43;;;3.67;;
18793;SDS011;29610;49.022;12.114;2023-06-14T01:38:38;8.07;;;3.40;;
18793;SDS011;29610;49.022;12.114;2023-06-14T01:41:09;9.27;;;3.70;;
18793;SDS011;29610;49.022;12.114;2023-06-14T01:43:39;10.17;;;3.50;;
18793;SDS011;29610;49.022;12.114;2023-06-14T01:46:10;9.10;;;3.20;;
18793;SDS011;29610;49.022;12.114;2023-06-14T01:48:40;8.60;;;3.80;;
18793;SDS011;29610;49.022;12.114;2023-06-14T01:51:10;12.00;;;3.87;;
18793;SDS011;29610;49.022;12.114;2023-06-14T01:53:40;9.10;;;3.23;;
18793;SDS011;29610;49.022;12.114;2023-06-14T01:56:09;11.77;;;3.20;;
18793;SDS011;29610;49.022;12.114;2023-06-14T01:58:38;9.47;;;3.67;;
18793;SDS011;29610;49.022;12.114;2023-06-14T02:01:07;10.67;;;4.07;;
18793;SDS011;29610;49.022;12.114;2023-06-14T02:03:38;9.53;;;3.70;;
18793;SDS011;29610;49.022;12.114;2023-06-14T02:06:07;9.63;;;4.60;;
18793;SDS011;29610;49.022;12.114;2023-06-14T02:08:38;10.80;;;3.77;;
18793;SDS011;29610;49.022;12.114;2023-06-14T02:11:09;8.37;;;3.50;;
18793;SDS011;29610;49.022;12.114;2023-06-14T02:13:38;12.10;;;4.20;;
18793;SDS011;29610;49.022;12.114;2023-06-14T02:16:06;9.20;;;3.53;;
18793;SDS011;29610;49.022;12.114;2023-06-14T02:18:37;12.87;;;3.77;;
18793;SDS011;29610;49.022;12.114;2023-06-14T02:21:06;11.87;;;4.00;;
18793;SDS011;29610;49.022;12.114;2023-06-14T02:23:35;10.10;;;4.07;;
18793;SDS011;29610;49.022;12.114;2023-06-14T02:26:05;8.13;;;3.40;;
18793;SDS011;29610;49.022;12.114;2023-06-14T02:28:34;9.23;;;3.60;;
18793;SDS011;29610;49.022;12.114;2023-06-14T02:31:03;9.50;;;3.77;;
18793;SDS011;29610;49.022;12.114;2023-06-14T02:33:32;8.97;;;3.80;;
18793;SDS011;29610;49.022;12.114;2023-06-14T02:36:02;10.17;;;3.50;;
18793;SDS011;29610;49.022;12.114;2023-06-14T02:38:34;8.10;;;3.20;;
18793;SDS011;29610;49.022;12.114;2023-06-14T02:41:02;11.10;;;3.63;;
18793;SDS011;29610;49.022;12.114;2023-06-14T02:43:34;10.67;;;4.40;;
18793;SDS011;29610;49.022;12.114;2023-06-14T02:46:05;9.17;;;3.80;;
18793;SDS011;29610;49.022;12.114;2023-06-14T02:48:34;9.57;;;4.57;;
18793;SDS011;29610;49.022;12.114;2023-06-14T02:51:03;11.60;;;4.27;;
18793;SDS011;29610;49.022;12.114;2023-06-14T02:53:33;9.10;;;4.30;;
18793;SDS011;29610;49.022;12.114;2023-06-14T02:56:02;10.97;;;3.73;;
18793;SDS011;29610;49.022;12.114;2023-06-14T02:58:31;8.83;;;3.57;;
18793;SDS011;29610;49.022;12.114;2023-06-14T03:01:02;11.47;;;3.87;;
18793;SDS011;29610;49.022;12.114;2023-06-14T03:03:32;8.43;;;3.67;;
18793;SDS011;29610;49.022;12.114;2023-06-14T03:06:01;12.43;;;4.63;;
18793;SDS011;29610;49.022;12.114;2023-06-14T03:08:34;9.27;;;3.90;;
18793;SDS011;29610;49.022;12.114;2023-06-14T03:11:11;8.70;;;4.03;;
18793;SDS011;29610;49.022;12.114;2023-06-14T03:13:42;15.50;;;3.90;;
18793;SDS011;29610;49.022;12.114;2023-06-14T03:16:12;10.33;;;4.67;;
18793;SDS011;29610;49.022;12.114;2023-06-14T03:18:41;12.63;;;3.90;;
18793;SDS011;29610;49.022;12.114;2023-06-14T03:21:09;9.50;;;4.17;;
18793;SDS011;29610;49.022;12.114;2023-06-14T03:23:41;10.80;;;4.47;;
18793;SDS011;29610;49.022;12.114;2023-06-14T03:26:11;9.67;;;4.00;;
18793;SDS011;29610;49.022;12.114;2023-06-14T03:28:43;10.97;;;4.23;;
18793;SDS011;29610;49.022;12.114;2023-06-14T03:31:13;11.90;;;4.77;;
18793;SDS011;29610;49.022;12.114;2023-06-14T03:33:43;9.90;;;4.17;;
18793;SDS011;29610;49.022;12.114;2023-06-14T03:36:12;9.87;;;5.00;;
18793;SDS011;29610;49.022;12.114;2023-06-14T03:38:41;10.37;;;4.50;;
18793;SDS011;29610;49.022;12.114;2023-06-14T03:41:11;13.17;;;4.63;;
18793;SDS011;29610;49.022;12.114;2023-06-14T03:43:40;10.93;;;4.03;;
18793;SDS011;29610;49.022;12.114;2023-06-14T03:46:11;13.00;;;4.07;;
18793;SDS011;29610;49.022;12.114;2023-06-14T03:48:40;12.87;;;4.30;;
18793;SDS011;29610;49.022;12.114;2023-06-14T03:51:09;10.53;;;4.50;;
18793;SDS011;29610;49.022;12.114;2023-06-14T03:53:38;10.80;;;5.37;;
18793;SDS011;29610;49.022;12.114;2023-06-14T03:56:27;20.30;;;4.70;;
18793;SDS011;29610;49.022;12.114;2023-06-14T03:58:58;12.50;;;5.23;;
18793;SDS011;29610;49.022;12.114;2023-06-14T04:01:28;9.80;;;4.80;;
18793;SDS011;29610;49.022;12.114;2023-06-14T04:03:59;10.30;;;5.10;;
18793;SDS011;29610;49.022;12.114;2023-06-14T04:06:28;10.60;;;4.70;;
18793;SDS011;29610;49.022;12.114;2023-06-14T04:08:59;10.10;;;4.57;;
18793;SDS011;29610;49.022;12.114;2023-06-14T04:11:32;9.27;;;4.33;;
18793;SDS011;29610;49.022;12.114;2023-06-14T04:14:05;11.17;;;4.70;;
18793;SDS011;29610;49.022;12.114;2023-06-14T04:16:34;10.60;;;4.23;;
18793;SDS011;29610;49.022;12.114;2023-06-14T04:19:03;10.67;;;4.50;;
18793;SDS011;29610;49.022;12.114;2023-06-14T04:21:33;12.13;;;4.70;;
18793;SDS011;29610;49.022;12.114;2023-06-14T04:24:03;11.53;;;5.20;;
18793;SDS011;29610;49.022;12.114;2023-06-14T04:26:33;10.13;;;4.70;;
18793;SDS011;29610;49.022;12.114;2023-06-14T04:29:04;10.33;;;4.40;;
18793;SDS011;29610;49.022;12.114;2023-06-14T04:31:40;9.23;;;4.40;;
18793;SDS011;29610;49.022;12.114;2023-06-14T04:34:10;9.80;;;4.70;;
18793;SDS011;29610;49.022;12.114;2023-06-14T04:36:50;10.60;;;5.20;;
18793;SDS011;29610;49.022;12.114;2023-06-14T04:39:23;13.20;;;4.80;;
18793;SDS011;29610;49.022;12.114;2023-06-14T04:41:55;9.30;;;4.40;;
18793;SDS011;29610;49.022;12.114;2023-06-14T04:44:28;10.53;;;4.10;;
18793;SDS011;29610;49.022;12.114;2023-06-14T04:47:02;13.00;;;5.57;;
18793;SDS011;29610;49.022;12.114;2023-06-14T04:49:33;9.63;;;4.33;;
18793;SDS011;29610;49.022;12.114;2023-06-14T04:52:04;11.03;;;4.60;;
18793;SDS011;29610;49.022;12.114;2023-06-14T04:54:36;13.60;;;4.50;;
18793;SDS011;29610;49.022;12.114;2023-06-14T04:57:07;11.17;;;4.67;;
18793;SDS011;29610;49.022;12.114;2023-06-14T04:59:44;10.90;;;5.13;;
18793;SDS011;29610;49.022;12.114;2023-06-14T05:02:12;15.53;;;5.80;;
18793;SDS011;29610;49.022;12.114;2023-06-14T05:04:42;9.03;;;4.37;;
18793;SDS011;29610;49.022;12.114;2023-06-14T05:07:11;11.70;;;5.30;;
18793;SDS011;29610;49.022;12.114;2023-06-14T05:09:41;9.57;;;4.80;;
18793;SDS011;29610;49.022;12.114;2023-06-14T05:12:12;14.37;;;4.90;;
18793;SDS011;29610;49.022;12.114;2023-06-14T05:14:45;10.30;;;5.10;;
18793;SDS011;29610;49.022;12.114;2023-06-14T05:17:17;11.40;;;4.60;;
18793;SDS011;29610;49.022;12.114;2023-06-14T05:19:47;10.63;;;4.23;;
18793;SDS011;29610;49.022;12.114;2023-06-14T05:22:16;11.77;;;5.00;;
18793;SDS011;29610;49.022;12.114;2023-06-14T05:24:44;15.93;;;5.27;;
18793;SDS011;29610;49.022;12.114;2023-06-14T05:27:16;11.10;;;4.27;;
18793;SDS011;29610;49.022;12.114;2023-06-14T05:29:46;11.33;;;4.90;;
18793;SDS011;29610;49.022;12.114;2023-06-14T05:32:14;11.70;;;4.57;;
18793;SDS011;29610;49.022;12.114;2023-06-14T05:34:43;15.27;;;4.37;;
18793;SDS011;29610;49.022;12.114;2023-06-14T05:37:13;12.80;;;4.33;;
18793;SDS011;29610;49.022;12.114;2023-06-14T05:39:41;11.77;;;5.10;;
18793;SDS011;29610;49.022;12.114;2023-06-14T05:42:10;12.40;;;4.53;;
18793;SDS011;29610;49.022;12.114;2023-06-14T05:44:42;15.70;;;5.50;;
18793;SDS011;29610;49.022;12.114;2023-06-14T05:47:12;9.97;;;4.90;;
18793;SDS011;29610;49.022;12.114;2023-06-14T05:49:41;12.70;;;4.30;;
18793;SDS011;29610;49.022;12.114;2023-06-14T05:52:10;10.50;;;4.73;;
18793;SDS011;29610;49.022;12.114;2023-06-14T05:54:39;10.50;;;4.30;;
18793;SDS011;29610;49.022;12.114;2023-06-14T05:57:08;10.40;;;5.00;;
18793;SDS011;29610;49.022;12.114;2023-06-14T05:59:38;10.07;;;4.20;;
18793;SDS011;29610;49.022;12.114;2023-06-14T06:02:07;12.83;;;5.00;;
18793;SDS011;29610;49.022;12.114;2023-06-14T06:04:38;11.30;;;4.00;;
18793;SDS011;29610;49.022;12.114;2023-06-14T06:07:07;15.17;;;5.10;;
18793;SDS011;29610;49.022;12.114;2023-06-14T06:09:36;9.77;;;4.67;;
18793;SDS011;29610;49.022;12.114;2023-06-14T06:12:06;11.97;;;5.10;;
18793;SDS011;29610;49.022;12.114;2023-06-14T06:14:35;10.90;;;4.73;;
18793;SDS011;29610;49.022;12.114;2023-06-14T06:17:04;11.47;;;4.70;;
18793;SDS011;29610;49.022;12.114;2023-06-14T06:19:33;9.87;;;3.97;;
18793;SDS011;29610;49.022;12.114;2023-06-14T06:22:04;10.50;;;4.20;;
18793;SDS011;29610;49.022;12.114;2023-06-14T06:24:33;9.90;;;4.47;;
18793;SDS011;29610;49.022;12.114;2023-06-14T06:27:02;9.73;;;4.20;;
18793;SDS011;29610;49.022;12.114;2023-06-14T06:29:31;13.40;;;4.43;;
18793;SDS011;29610;49.022;12.114;2023-06-14T06:32:00;15.63;;;5.83;;
18793;SDS011;29610;49.022;12.114;2023-06-14T06:34:29;10.70;;;4.40;;
18793;SDS011;29610;49.022;12.114;2023-06-14T06:36:57;11.30;;;4.23;;
18793;SDS011;29610;49.022;12.114;2023-06-14T06:39:28;10.37;;;4.20;;
18793;SDS011;29610;49.022;12.114;2023-06-14T06:41:56;11.20;;;4.83;;
18793;SDS011;29610;49.022;12.114;2023-06-14T06:44:32;10.37;;;4.53;;
18793;SDS011;29610;49.022;12.114;2023-06-14T06:47:01;9.20;;;3.67;;
18793;SDS011;29610;49.022;12.114;2023-06-14T06:49:30;9.40;;;4.47;;
18793;SDS011;29610;49.022;12.114;2023-06-14T06:51:59;15.17;;;4.07;;
18793;SDS011;29610;49.022;12.114;2023-06-14T06:54:30;9.90;;;3.67;;
18793;SDS011;29610;49.022;12.114;2023-06-14T06:57:00;10.37;;;3.80;;
18793;SDS011;29610;49.022;12.114;2023-06-14T06:59:28;9.00;;;4.10;;
18793;SDS011;29610;49.022;12.114;2023-06-14T07:01:57;8.90;;;3.60;;
18793;SDS011;29610;49.022;12.114;2023-06-14T07:04:27;10.77;;;4.70;;
18793;SDS011;29610;49.022;12.114;2023-06-14T07:06:56;10.90;;;3.73;;
18793;SDS011;29610;49.022;12.114;2023-06-14T07:09:24;8.97;;;4.20;;
18793;SDS011;29610;49.022;12.114;2023-06-14T07:11:54;10.93;;;3.97;;
18793;SDS011;29610;49.022;12.114;2023-06-14T07:14:23;13.83;;;3.40;;
18793;SDS011;29610;49.022;12.114;2023-06-14T07:16:52;9.73;;;3.50;;
18793;SDS011;29610;49.022;12.114;2023-06-14T07:19:21;12.97;;;3.90;;
18793;SDS011;29610;49.022;12.114;2023-06-14T07:21:49;12.10;;;3.90;;
18793;SDS011;29610;49.022;12.114;2023-06-14T07:24:19;12.50;;;3.33;;
18793;SDS011;29610;49.022;12.114;2023-06-14T07:26:49;14.50;;;3.93;;
18793;SDS011;29610;49.022;12.114;2023-06-14T07:29:19;11.03;;;4.30;;
18793;SDS011;29610;49.022;12.114;2023-06-14T07:31:48;9.80;;;3.80;;
18793;SDS011;29610;49.022;12.114;2023-06-14T07:34:17;13.03;;;4.13;;
18793;SDS011;29610;49.022;12.114;2023-06-14T07:36:46;15.90;;;3.83;;
18793;SDS011;29610;49.022;12.114;2023-06-14T07:39:14;10.50;;;4.00;;
18793;SDS011;29610;49.022;12.114;2023-06-14T07:41:43;11.80;;;3.60;;
18793;SDS011;29610;49.022;12.114;2023-06-14T07:44:12;9.50;;;4.20;;
18793;SDS011;29610;49.022;12.114;2023-06-14T07:46:49;14.33;;;3.77;;
18793;SDS011;29610;49.022;12.114;2023-06-14T07:49:18;11.50;;;3.80;;
18793;SDS011;29610;49.022;12.114;2023-06-14T07:51:47;10.03;;;3.47;;
18793;SDS011;29610;49.022;12.114;2023-06-14T07:54:16;8.60;;;3.20;;
18793;SDS011;29610;49.022;12.114;2023-06-14T07:56:45;10.33;;;3.27;;
18793;SDS011;29610;49.022;12.114;2023-06-14T07:59:14;9.40;;;3.23;;
18793;SDS011;29610;49.022;12.114;2023-06-14T08:01:43;11.10;;;3.63;;
18793;SDS011;29610;49.022;12.114;2023-06-14T08:04:15;11.83;;;4.17;;
18793;SDS011;29610;49.022;12.114;2023-06-14T08:06:43;9.43;;;3.17;;
18793;SDS011;29610;49.022;12.114;2023-06-14T08:09:12;11.77;;;4.23;;
18793;SDS011;29610;49.022;12.114;2023-06-14T08:11:41;10.90;;;3.57;;
18793;SDS011;29610;49.022;12.114;2023-06-14T08:14:11;18.73;;;3.33;;
18793;SDS011;29610;49.022;12.114;2023-06-14T08:16:40;9.13;;;3.50;;
18793;SDS011;29610;49.022;12.114;2023-06-14T08:19:09;9.80;;;3.00;;
18793;SDS011;29610;49.022;12.114;2023-06-14T08:21:39;9.40;;;3.17;;
18793;SDS011;29610;49.022;12.114;2023-06-14T08:24:08;12.30;;;3.23;;
18793;SDS011;29610;49.022;12.114;2023-06-14T08:26:39;12.03;;;3.37;;
18793;SDS011;29610;49.022;12.114;2023-06-14T08:29:08;14.67;;;3.60;;
18793;SDS011;29610;49.022;12.114;2023-06-14T08:31:37;19.97;;;3.30;;
18793;SDS011;29610;49.022;12.114;2023-06-14T08:34:06;9.07;;;2.67;;
18793;SDS011;29610;49.022;12.114;2023-06-14T08:36:35;10.93;;;4.40;;
18793;SDS011;29610;49.022;12.114;2023-06-14T08:39:05;11.90;;;3.60;;
18793;SDS011;29610;49.022;12.114;2023-06-14T08:41:35;10.13;;;3.17;;
18793;SDS011;29610;49.022;12.114;2023-06-14T08:44:05;9.20;;;3.67;;
18793;SDS011;29610;49.022;12.114;2023-06-14T08:46:34;13.13;;;3.50;;
18793;SDS011;29610;49.022;12.114;2023-06-14T08:49:05;8.30;;;2.97;;
18793;SDS011;29610;49.022;12.114;2023-06-14T08:51:35;8.63;;;2.43;;
18793;SDS011;29610;49.022;12.114;2023-06-14T08:54:06;14.50;;;3.80;;
18793;SDS011;29610;49.022;12.114;2023-06-14T08:56:36;8.17;;;2.60;;
18793;SDS011;29610;49.022;12.114;2023-06-14T08:59:08;8.80;;;3.10;;
18793;SDS011;29610;49.022;12.114;2023-06-14T09:01:38;9.30;;;2.57;;
18793;SDS011;29610;49.022;12.114;2023-06-14T09:04:21;13.33;;;3.23;;
18793;SDS011;29610;49.022;12.114;2023-06-14T09:06:50;9.50;;;2.80;;
18793;SDS011;29610;49.022;12.114;2023-06-14T09:09:22;10.20;;;3.00;;
18793;SDS011;29610;49.022;12.114;2023-06-14T09:11:52;9.73;;;3.10;;
18793;SDS011;29610;49.022;12.114;2023-06-14T09:14:23;11.43;;;3.20;;
18793;SDS011;29610;49.022;12.114;2023-06-14T09:16:52;12.47;;;3.70;;
18793;SDS011;29610;49.022;12.114;2023-06-14T09:19:22;7.90;;;2.63;;
18793;SDS011;29610;49.022;12.114;2023-06-14T09:21:52;9.00;;;3.40;;
18793;SDS011;29610;49.022;12.114;2023-06-14T09:24:24;8.40;;;2.53;;
18793;SDS011;29610;49.022;12.114;2023-06-14T09:26:53;15.67;;;3.47;;
18793;SDS011;29610;49.022;12.114;2023-06-14T09:29:24;11.40;;;3.53;;
18793;SDS011;29610;49.022;12.114;2023-06-14T09:31:54;15.37;;;3.90;;
18793;SDS011;29610;49.022;12.114;2023-06-14T09:34:23;10.57;;;3.33;;
18793;SDS011;29610;49.022;12.114;2023-06-14T09:36:52;11.03;;;3.37;;
18793;SDS011;29610;49.022;12.114;2023-06-14T09:39:22;10.30;;;3.40;;
18793;SDS011;29610;49.022;12.114;2023-06-14T09:41:53;10.87;;;3.87;;
18793;SDS011;29610;49.022;12.114;2023-06-14T09:44:22;9.27;;;3.60;;
18793;SDS011;29610;49.022;12.114;2023-06-14T09:46:55;13.70;;;3.63;;
18793;SDS011;29610;49.022;12.114;2023-06-14T09:49:26;9.97;;;2.90;;
18793;SDS011;29610;49.022;12.114;2023-06-14T09:51:59;13.53;;;2.97;;
18793;SDS011;29610;49.022;12.114;2023-06-14T09:54:28;10.73;;;3.30;;
18793;SDS011;29610;49.022;12.114;2023-06-14T09:57:01;12.30;;;3.90;;
18793;SDS011;29610;49.022;12.114;2023-06-14T09:59:33;16.07;;;3.80;;
18793;SDS011;29610;49.022;12.114;2023-06-14T10:02:05;11.90;;;3.13;;
18793;SDS011;29610;49.022;12.114;2023-06-14T10:04:54;12.60;;;3.93;;
18793;SDS011;29610;49.022;12.114;2023-06-14T10:07:35;8.70;;;3.50;;
18793;SDS011;29610;49.022;12.114;2023-06-14T10:10:10;10.60;;;3.17;;
18793;SDS011;29610;49.022;12.114;2023-06-14T10:12:41;11.50;;;4.07;;
18793;SDS011;29610;49.022;12.114;2023-06-14T10:15:10;11.50;;;3.43;;
18793;SDS011;29610;49.022;12.114;2023-06-14T10:17:48;11.00;;;4.23;;
18793;SDS011;29610;49.022;12.114;2023-06-14T10:20:28;10.80;;;2.90;;
18793;SDS011;29610;49.022;12.114;2023-06-14T10:23:06;10.30;;;3.67;;
18793;SDS011;29610;49.022;12.114;2023-06-14T10:25:39;9.17;;;3.40;;
18793;SDS011;29610;49.022;12.114;2023-06-14T10:28:16;8.73;;;3.00;;
18793;SDS011;29610;49.022;12.114;2023-06-14T10:31:01;14.87;;;3.40;;
18793;SDS011;29610;49.022;12.114;2023-06-14T10:33:35;8.53;;;2.93;;
18793;SDS011;29610;49.022;12.114;2023-06-14T10:36:10;8.97;;;2.80;;
18793;SDS011;29610;49.022;12.114;2023-06-14T10:38:58;9.27;;;3.47;;
18793;SDS011;29610;49.022;12.114;2023-06-14T10:41:32;8.70;;;3.10;;
18793;SDS011;29610;49.022;12.114;2023-06-14T10:47:21;9.33;;;2.73;;
18793;SDS011;29610;49.022;12.114;2023-06-14T10:49:53;7.73;;;2.70;;
18793;SDS011;29610;49.022;12.114;2023-06-14T10:52:24;14.67;;;3.70;;
18793;SDS011;29610;49.022;12.114;2023-06-14T10:55:06;8.57;;;3.00;;
18793;SDS011;29610;49.022;12.114;2023-06-14T10:57:39;8.37;;;3.10;;
18793;SDS011;29610;49.022;12.114;2023-06-14T11:00:19;9.53;;;3.30;;
18793;SDS011;29610;49.022;12.114;2023-06-14T11:06:14;8.63;;;3.40;;
18793;SDS011;29610;49.022;12.114;2023-06-14T11:12:12;8.63;;;3.07;;
18793;SDS011;29610;49.022;12.114;2023-06-14T11:14:42;8.50;;;2.40;;
18793;SDS011;29610;49.022;12.114;2023-06-14T11:17:15;8.23;;;3.00;;
18793;SDS011;29610;49.022;12.114;2023-06-14T11:19:47;8.80;;;2.90;;
18793;SDS011;29610;49.022;12.114;2023-06-14T11:22:16;9.93;;;3.13;;
18793;SDS011;29610;49.022;12.114;2023-06-14T11:24:45;11.13;;;3.10;;
18793;SDS011;29610;49.022;12.114;2023-06-14T11:27:14;9.70;;;3.63;;
18793;SDS011;29610;49.022;12.114;2023-06-14T11:29:47;8.57;;;3.03;;
18793;SDS011;29610;49.022;12.114;2023-06-14T11:32:18;14.43;;;4.20;;
18793;SDS011;29610;49.022;12.114;2023-06-14T11:34:47;16.00;;;4.37;;
18793;SDS011;29610;49.022;12.114;2023-06-14T11:37:17;9.00;;;3.10;;
18793;SDS011;29610;49.022;12.114;2023-06-14T11:39:46;10.60;;;3.70;;
18793;SDS011;29610;49.022;12.114;2023-06-14T11:42:15;9.77;;;3.30;;
18793;SDS011;29610;49.022;12.114;2023-06-14T11:44:45;11.23;;;3.53;;
18793;SDS011;29610;49.022;12.114;2023-06-14T11:47:14;11.17;;;3.80;;
18793;SDS011;29610;49.022;12.114;2023-06-14T11:49:44;11.57;;;3.43;;
18793;SDS011;29610;49.022;12.114;2023-06-14T11:52:14;14.87;;;4.00;;
18793;SDS011;29610;49.022;12.114;2023-06-14T11:54:44;10.70;;;3.60;;
18793;SDS011;29610;49.022;12.114;2023-06-14T11:57:17;10.90;;;3.73;;
18793;SDS011;29610;49.022;12.114;2023-06-14T11:59:47;16.70;;;3.37;;
18793;SDS011;29610;49.022;12.114;2023-06-14T12:02:17;12.77;;;3.33;;
18793;SDS011;29610;49.022;12.114;2023-06-14T12:04:52;9.50;;;3.57;;
18793;SDS011;29610;49.022;12.114;2023-06-14T12:07:21;9.30;;;3.70;;
18793;SDS011;29610;49.022;12.114;2023-06-14T12:12:38;13.80;;;4.47;;
18793;SDS011;29610;49.022;12.114;2023-06-14T12:15:09;10.70;;;3.50;;
18793;SDS011;29610;49.022;12.114;2023-06-14T12:17:39;10.17;;;4.03;;
18793;SDS011;29610;49.022;12.114;2023-06-14T12:20:12;10.07;;;3.80;;
18793;SDS011;29610;49.022;12.114;2023-06-14T12:22:52;12.73;;;4.17;;
18793;SDS011;29610;49.022;12.114;2023-06-14T12:25:23;11.83;;;4.30;;
18793;SDS011;29610;49.022;12.114;2023-06-14T12:27:57;11.53;;;3.33;;
18793;SDS011;29610;49.022;12.114;2023-06-14T12:30:27;11.97;;;3.50;;
18793;SDS011;29610;49.022;12.114;2023-06-14T12:32:56;10.00;;;3.60;;
18793;SDS011;29610;49.022;12.114;2023-06-14T12:35:27;15.33;;;3.30;;
18793;SDS011;29610;49.022;12.114;2023-06-14T12:37:56;9.13;;;3.07;;
18793;SDS011;29610;49.022;12.114;2023-06-14T12:40:25;10.73;;;3.30;;
18793;SDS011;29610;49.022;12.114;2023-06-14T12:42:54;10.03;;;3.53;;
18793;SDS011;29610;49.022;12.114;2023-06-14T12:45:23;8.40;;;3.10;;
18793;SDS011;29610;49.022;12.114;2023-06-14T12:47:52;8.73;;;3.10;;
18793;SDS011;29610;49.022;12.114;2023-06-14T12:50:22;12.50;;;3.80;;
18793;SDS011;29610;49.022;12.114;2023-06-14T12:52:54;12.93;;;4.13;;
18793;SDS011;29610;49.022;12.114;2023-06-14T12:55:23;12.77;;;4.00;;
18793;SDS011;29610;49.022;12.114;2023-06-14T12:57:51;10.90;;;3.40;;
18793;SDS011;29610;49.022;12.114;2023-06-14T13:00:20;9.87;;;3.50;;
18793;SDS011;29610;49.022;12.114;2023-06-14T13:02:50;10.50;;;3.30;;
18793;SDS011;29610;49.022;12.114;2023-06-14T13:05:18;10.97;;;3.60;;
18793;SDS011;29610;49.022;12.114;2023-06-14T13:07:47;12.00;;;3.33;;
18793;SDS011;29610;49.022;12.114;2023-06-14T13:10:18;10.77;;;3.73;;
18793;SDS011;29610;49.022;12.114;2023-06-14T13:12:46;8.77;;;3.50;;
18793;SDS011;29610;49.022;12.114;2023-06-14T13:15:15;8.73;;;3.33;;
18793;SDS011;29610;49.022;12.114;2023-06-14T13:17:44;8.83;;;3.33;;
18793;SDS011;29610;49.022;12.114;2023-06-14T13:20:15;13.83;;;3.27;;
18793;SDS011;29610;49.022;12.114;2023-06-14T13:22:46;9.33;;;2.77;;
18793;SDS011;29610;49.022;12.114;2023-06-14T13:25:15;12.07;;;3.80;;
18793;SDS011;29610;49.022;12.114;2023-06-14T13:27:45;12.40;;;3.23;;
18793;SDS011;29610;49.022;12.114;2023-06-14T13:30:14;10.43;;;3.40;;
18793;SDS011;29610;49.022;12.114;2023-06-14T13:32:43;8.60;;;2.70;;
18793;SDS011;29610;49.022;12.114;2023-06-14T13:35:16;10.27;;;3.57;;
18793;SDS011;29610;49.022;12.114;2023-06-14T13:37:45;9.30;;;3.50;;
18793;SDS011;29610;49.022;12.114;2023-06-14T13:40:14;8.53;;;3.30;;
18793;SDS011;29610;49.022;12.114;2023-06-14T13:42:45;11.67;;;3.40;;
18793;SDS011;29610;49.022;12.114;2023-06-14T13:45:14;9.80;;;3.63;;
18793;SDS011;29610;49.022;12.114;2023-06-14T13:47:43;14.60;;;3.47;;
18793;SDS011;29610;49.022;12.114;2023-06-14T13:50:15;9.80;;;3.73;;
18793;SDS011;29610;49.022;12.114;2023-06-14T13:52:44;10.67;;;3.53;;
18793;SDS011;29610;49.022;12.114;2023-06-14T13:55:13;8.53;;;2.80;;
18793;SDS011;29610;49.022;12.114;2023-06-14T13:57:42;10.63;;;3.53;;
18793;SDS011;29610;49.022;12.114;2023-06-14T14:00:13;17.33;;;3.43;;
18793;SDS011;29610;49.022;12.114;2023-06-14T14:02:46;10.57;;;3.30;;
18793;SDS011;29610;49.022;12.114;2023-06-14T14:05:17;8.20;;;3.40;;
18793;SDS011;29610;49.022;12.114;2023-06-14T14:07:47;9.80;;;3.40;;
18793;SDS011;29610;49.022;12.114;2023-06-14T14:10:16;9.97;;;3.40;;
18793;SDS011;29610;49.022;12.114;2023-06-14T14:12:46;14.43;;;3.43;;
18793;SDS011;29610;49.022;12.114;2023-06-14T14:15:17;15.50;;;3.60;;
18793;SDS011;29610;49.022;12.114;2023-06-14T14:17:46;8.83;;;3.20;;
18793;SDS011;29610;49.022;12.114;2023-06-14T14:20:15;10.80;;;3.23;;
18793;SDS011;29610;49.022;12.114;2023-06-14T14:22:44;9.07;;;3.37;;
18793;SDS011;29610;49.022;12.114;2023-06-14T14:25:13;10.27;;;4.80;;
18793;SDS011;29610;49.022;12.114;2023-06-14T14:27:42;9.07;;;3.60;;
18793;SDS011;29610;49.022;12.114;2023-06-14T14:30:11;10.30;;;3.50;;
18793;SDS011;29610;49.022;12.114;2023-06-14T14:32:45;12.60;;;4.73;;
18793;SDS011;29610;49.022;12.114;2023-06-14T14:35:15;7.87;;;3.20;;
18793;SDS011;29610;49.022;12.114;2023-06-14T14:37:44;10.60;;;3.27;;
18793;SDS011;29610;49.022;12.114;2023-06-14T14:40:13;13.33;;;3.40;;
18793;SDS011;29610;49.022;12.114;2023-06-14T14:42:42;8.23;;;3.10;;
18793;SDS011;29610;49.022;12.114;2023-06-14T14:45:11;10.67;;;4.20;;
18793;SDS011;29610;49.022;12.114;2023-06-14T14:47:40;9.20;;;3.30;;
18793;SDS011;29610;49.022;12.114;2023-06-14T14:50:10;7.77;;;2.70;;
18793;SDS011;29610;49.022;12.114;2023-06-14T14:52:39;9.93;;;3.47;;
18793;SDS011;29610;49.022;12.114;2023-06-14T14:55:08;9.80;;;3.40;;
18793;SDS011;29610;49.022;12.114;2023-06-14T14:57:37;9.50;;;3.57;;